Time;durP1;ratioP1;P1;durP2;ratioP2;P2;SDS_P1;SDS_P2;PMS_P1;PMS_P2;Temp;Humidity;BMP_temperature;BMP_pressure;BME280_temperature;BME280_humidity;BME280_pressure;Samples;Min_cycle;Max_cycle;Signal;HPM_P1;HPM_P2
2021/12/24 00:01:54;;;;;;;25.58;14.20;;;;;;;;;;5031649;28;20033;-64
2021/12/24 00:04:21;;;;;;;26.17;14.73;;;;;;;;;;5031493;28;20472;-62
2021/12/24 00:06:47;;;;;;;23.27;13.07;;;;;;;;;;5028778;28;20534;-61
2021/12/24 00:09:20;;;;;;;23.48;13.82;;;;;;;;;;5030655;28;20029;-62
2021/12/24 00:11:47;;;;;;;23.63;14.20;;;;;;;;;;5031566;28;20461;-61
2021/12/24 00:14:12;;;;;;;22.33;13.05;;;;;;;;;;5027964;28;20846;-64
2021/12/24 00:16:52;;;;;;;21.73;13.20;;;;;;;;;;5031639;28;20120;-64
2021/12/24 00:19:36;;;;;;;26.63;14.18;;;;;;;;;;5030451;28;20021;-65
2021/12/24 00:35:33;;;;;;;25.80;14.38;;;;;;;;;;5029025;28;20052;-65
2021/12/24 00:38:03;;;;;;;24.60;14.13;;;;;;;;;;5029401;28;20485;-62
2021/12/24 00:40:32;;;;;;;27.35;15.35;;;;;;;;;;5028928;28;20021;-63
2021/12/24 00:42:58;;;;;;;25.58;14.63;;;;;;;;;;5029328;28;20392;-64
2021/12/24 00:45:27;;;;;;;24.75;13.90;;;;;;;;;;5027020;28;20045;-62
2021/12/24 00:47:53;;;;;;;22.80;13.38;;;;;;;;;;5031262;28;20025;-65
2021/12/24 00:50:23;;;;;;;23.80;13.60;;;;;;;;;;5031237;28;20025;-66
2021/12/24 00:52:56;;;;;;;25.35;15.02;;;;;;;;;;5026686;28;20056;-64
2021/12/24 00:55:25;;;;;;;24.23;13.77;;;;;;;;;;5030957;28;20038;-61
2021/12/24 00:57:56;;;;;;;25.85;14.13;;;;;;;;;;5029176;28;20025;-64
2021/12/24 01:00:31;;;;;;;23.02;13.23;;;;;;;;;;5029388;28;20037;-63
2021/12/24 01:02:58;;;;;;;27.33;14.90;;;;;;;;;;5030039;28;20439;-63
2021/12/24 01:05:27;;;;;;;23.70;13.30;;;;;;;;;;5031340;28;20084;-64
2021/12/24 01:07:52;;;;;;;26.92;14.05;;;;;;;;;;5031604;28;20026;-66
2021/12/24 01:10:21;;;;;;;27.92;15.43;;;;;;;;;;5031217;28;20478;-63
2021/12/24 01:12:47;;;;;;;24.13;14.88;;;;;;;;;;5029117;28;20159;-65
2021/12/24 01:15:14;;;;;;;27.95;14.70;;;;;;;;;;5029852;28;20483;-64
2021/12/24 01:20:22;;;;;;;23.92;13.30;;;;;;;;;;5029931;28;20018;-64
2021/12/24 01:25:47;;;;;;;27.27;15.00;;;;;;;;;;5032535;28;20024;-60
2021/12/24 01:39:24;;;;;;;27.77;14.63;;;;;;;;;;5032248;28;20118;-64
2021/12/24 01:44:36;;;;;;;26.67;14.52;;;;;;;;;;5030079;28;20049;-63
2021/12/24 01:47:04;;;;;;;25.88;14.65;;;;;;;;;;5034511;28;20037;-64
2021/12/24 01:49:30;;;;;;;28.05;14.50;;;;;;;;;;5030994;28;20018;-62
2021/12/24 01:51:57;;;;;;;28.58;15.55;;;;;;;;;;5030608;28;20084;-64
2021/12/24 01:54:23;;;;;;;25.65;14.15;;;;;;;;;;5033782;28;20037;-59
2021/12/24 01:56:49;;;;;;;26.85;14.82;;;;;;;;;;5031506;28;20321;-60
2021/12/24 01:59:15;;;;;;;28.70;14.65;;;;;;;;;;5033998;28;20026;-63
2021/12/24 02:01:41;;;;;;;27.15;15.70;;;;;;;;;;5033595;28;20033;-64
2021/12/24 02:04:07;;;;;;;27.70;14.65;;;;;;;;;;5033520;28;20045;-59
2021/12/24 02:06:32;;;;;;;30.95;15.77;;;;;;;;;;5033931;28;20021;-59
2021/12/24 02:08:58;;;;;;;27.35;14.27;;;;;;;;;;5033715;28;20341;-60
2021/12/24 02:11:24;;;;;;;28.52;15.07;;;;;;;;;;5032062;28;20067;-60
2021/12/24 02:13:50;;;;;;;25.27;13.73;;;;;;;;;;5032835;28;20037;-66
2021/12/24 02:29:57;;;;;;;25.38;14.35;;;;;;;;;;4970531;28;20081;-66
2021/12/24 02:32:23;;;;;;;27.83;14.88;;;;;;;;;;4972195;28;20046;-67
2021/12/24 02:34:49;;;;;;;23.98;14.10;;;;;;;;;;4969499;28;20038;-66
2021/12/24 02:37:14;;;;;;;24.20;13.15;;;;;;;;;;4972220;28;20038;-67
2021/12/24 02:39:40;;;;;;;24.13;13.25;;;;;;;;;;4972011;28;20038;-66
2021/12/24 02:42:19;;;;;;;24.88;13.80;;;;;;;;;;4971541;28;20070;-67
2021/12/24 02:44:48;;;;;;;22.55;12.25;;;;;;;;;;4971568;28;20043;-61
2021/12/24 02:55:06;;;;;;;23.27;13.63;;;;;;;;;;4971224;28;20463;-63
2021/12/24 02:57:34;;;;;;;26.67;14.10;;;;;;;;;;4977804;28;20046;-62
2021/12/24 03:00:06;;;;;;;23.33;13.75;;;;;;;;;;5032896;28;20026;-59
2021/12/24 03:02:32;;;;;;;26.17;14.73;;;;;;;;;;5028043;28;20021;-60
2021/12/24 03:04:58;;;;;;;27.50;14.23;;;;;;;;;;5032798;28;20116;-62
2021/12/24 03:07:23;;;;;;;27.40;14.63;;;;;;;;;;5031922;28;20244;-61
2021/12/24 03:09:49;;;;;;;25.63;14.07;;;;;;;;;;5032175;28;20041;-60
2021/12/24 03:12:14;;;;;;;26.05;14.63;;;;;;;;;;5030810;28;20025;-60
2021/12/24 03:14:40;;;;;;;26.45;13.98;;;;;;;;;;5032719;28;20037;-60
2021/12/24 03:17:10;;;;;;;26.15;13.63;;;;;;;;;;5032300;28;20017;-61
2021/12/24 03:19:36;;;;;;;26.00;14.63;;;;;;;;;;5032586;28;20022;-61
2021/12/24 03:22:26;;;;;;;24.27;13.80;;;;;;;;;;5032194;28;20400;-60
2021/12/24 03:24:51;;;;;;;27.35;14.55;;;;;;;;;;5030032;28;20029;-61
2021/12/24 03:27:17;;;;;;;26.35;14.15;;;;;;;;;;5030922;28;20512;-61
2021/12/24 03:29:42;;;;;;;23.55;13.48;;;;;;;;;;5032403;28;20045;-62
2021/12/24 03:32:09;;;;;;;25.75;13.63;;;;;;;;;;5012776;28;20029;-65
2021/12/24 03:34:35;;;;;;;25.02;14.05;;;;;;;;;;5032178;28;20049;-61
2021/12/24 03:37:03;;;;;;;23.92;13.88;;;;;;;;;;5031941;28;20118;-66
2021/12/24 03:39:29;;;;;;;25.83;13.70;;;;;;;;;;5030471;28;20115;-62
2021/12/24 03:41:55;;;;;;;26.48;13.80;;;;;;;;;;5031759;28;20516;-61
2021/12/24 03:44:21;;;;;;;25.92;14.23;;;;;;;;;;5031715;28;20029;-66
2021/12/24 03:47:11;;;;;;;27.45;14.55;;;;;;;;;;5027758;28;20052;-63
2021/12/24 03:54:57;;;;;;;25.83;14.27;;;;;;;;;;5029653;28;20472;-65
2021/12/24 03:57:23;;;;;;;;;;;;;;;;;;5029782;28;20114;-66
2021/12/24 03:59:49;;;;;;;20.63;11.23;;;;;;;;;;5032046;28;19916;-64
2021/12/24 04:02:14;;;;;;;24.02;13.20;;;;;;;;;;5031632;28;20503;-66
2021/12/24 04:04:40;;;;;;;25.27;13.38;;;;;;;;;;5031537;28;20083;-66
2021/12/24 04:07:06;;;;;;;23.92;12.82;;;;;;;;;;5031374;28;20465;-65
2021/12/24 04:09:32;;;;;;;26.80;14.50;;;;;;;;;;5031618;28;20037;-66
2021/12/24 04:11:58;;;;;;;32.72;15.63;;;;;;;;;;5031832;28;20467;-60
2021/12/24 04:14:23;;;;;;;51.85;20.83;;;;;;;;;;5031527;28;20083;-66
2021/12/24 04:16:49;;;;;;;43.28;20.13;;;;;;;;;;5029093;28;20431;-65
2021/12/24 04:24:56;;;;;;;31.80;15.15;;;;;;;;;;5029106;28;20105;-66
2021/12/24 04:27:28;;;;;;;29.48;15.50;;;;;;;;;;5031588;28;20034;-66
2021/12/24 04:30:02;;;;;;;45.33;17.92;;;;;;;;;;5029462;28;20057;-61
2021/12/24 04:32:40;;;;;;;35.10;16.92;;;;;;;;;;5028859;28;20060;-65
2021/12/24 04:35:18;;;;;;;27.45;14.25;;;;;;;;;;5030699;28;20034;-66
2021/12/24 05:01:51;;;;;;;22.50;12.07;;;;;;;;;;5034303;28;20557;-65
2021/12/24 05:04:24;;;;;;;25.10;13.15;;;;;;;;;;5033236;28;20079;-64
2021/12/24 05:06:56;;;;;;;22.02;12.52;;;;;;;;;;5032763;28;20083;-66
2021/12/24 05:09:25;;;;;;;19.15;11.32;;;;;;;;;;5034902;28;20034;-66
2021/12/24 05:11:51;;;;;;;21.60;12.55;;;;;;;;;;5032706;28;20033;-66
2021/12/24 05:14:16;;;;;;;25.58;13.50;;;;;;;;;;5034463;28;20424;-66
2021/12/24 05:16:49;;;;;;;23.85;14.13;;;;;;;;;;5034470;28;20477;-65
2021/12/24 05:21:51;;;;;;;22.08;12.77;;;;;;;;;;5027860;28;20404;-66
2021/12/24 05:24:19;;;;;;;24.25;12.40;;;;;;;;;;5034674;28;20025;-64
2021/12/24 05:26:48;;;;;;;26.08;14.05;;;;;;;;;;5034821;28;20484;-64
2021/12/24 05:29:15;;;;;;;21.08;12.25;;;;;;;;;;5034520;28;20025;-66
2021/12/24 05:31:41;;;;;;;24.80;12.93;;;;;;;;;;5016637;28;20469;-65
2021/12/24 05:34:07;;;;;;;21.45;12.23;;;;;;;;;;5034238;28;20037;-66
2021/12/24 05:36:32;;;;;;;18.88;11.23;;;;;;;;;;5031879;28;20060;-65
2021/12/24 05:38:58;;;;;;;18.70;11.52;;;;;;;;;;5034300;28;20057;-65
2021/12/24 05:41:24;;;;;;;19.98;11.15;;;;;;;;;;5033868;28;20025;-65
2021/12/24 05:43:50;;;;;;;25.10;14.52;;;;;;;;;;5034233;28;20037;-66
2021/12/24 05:46:16;;;;;;;23.02;13.60;;;;;;;;;;5033837;28;20480;-66
2021/12/24 05:48:41;;;;;;;22.35;11.80;;;;;;;;;;5031663;28;20128;-65
2021/12/24 05:51:07;;;;;;;20.30;12.00;;;;;;;;;;5034140;28;20064;-65
2021/12/24 05:53:32;;;;;;;20.27;11.27;;;;;;;;;;5031074;28;20022;-65
2021/12/24 05:55:58;;;;;;;21.77;10.88;;;;;;;;;;5032925;28;20125;-66
2021/12/24 05:58:23;;;;;;;19.92;11.35;;;;;;;;;;5034126;28;20041;-65
2021/12/24 06:00:49;;;;;;;20.27;11.93;;;;;;;;;;5033106;28;20029;-66
2021/12/24 06:03:16;;;;;;;19.83;11.35;;;;;;;;;;5032038;28;20036;-66
2021/12/24 06:05:42;;;;;;;25.80;12.23;;;;;;;;;;5015838;28;20037;-66
2021/12/24 06:08:08;;;;;;;20.65;11.52;;;;;;;;;;5033991;28;20028;-66
2021/12/24 06:10:34;;;;;;;21.35;11.15;;;;;;;;;;5034159;28;20021;-66
2021/12/24 06:13:02;;;;;;;20.63;11.43;;;;;;;;;;5034102;28;20033;-62
2021/12/24 06:15:27;;;;;;;21.08;11.85;;;;;;;;;;5033715;28;20156;-60
2021/12/24 06:17:56;;;;;;;19.90;11.40;;;;;;;;;;5033769;28;20025;-66
2021/12/24 06:20:24;;;;;;;18.98;10.90;;;;;;;;;;5033404;28;20400;-65
2021/12/24 06:22:50;;;;;;;18.08;10.93;;;;;;;;;;5031245;28;20100;-66
2021/12/24 06:25:17;;;;;;;19.42;11.05;;;;;;;;;;5031422;28;20029;-66
2021/12/24 06:27:44;;;;;;;22.13;12.00;;;;;;;;;;5015547;28;20477;-66
2021/12/24 06:30:10;;;;;;;21.48;11.48;;;;;;;;;;5030456;28;20030;-66
2021/12/24 06:32:36;;;;;;;20.90;11.48;;;;;;;;;;5033036;28;20060;-65
2021/12/24 06:35:03;;;;;;;19.20;10.95;;;;;;;;;;5033138;28;20064;-65
2021/12/24 06:37:28;;;;;;;18.80;10.68;;;;;;;;;;5033147;28;20022;-64
2021/12/24 06:39:55;;;;;;;18.92;10.73;;;;;;;;;;5033061;28;20041;-66
2021/12/24 06:42:21;;;;;;;20.17;10.98;;;;;;;;;;5033142;28;20393;-65
2021/12/24 06:44:47;;;;;;;20.83;10.60;;;;;;;;;;5032670;28;20034;-64
2021/12/24 06:47:12;;;;;;;18.65;10.55;;;;;;;;;;5033368;28;20399;-64
2021/12/24 06:49:38;;;;;;;20.63;11.23;;;;;;;;;;5033123;28;20080;-67
2021/12/24 06:52:04;;;;;;;18.17;9.57;;;;;;;;;;5030478;28;20080;-66
2021/12/24 06:54:31;;;;;;;23.05;11.85;;;;;;;;;;5025478;28;20037;-64
2021/12/24 06:56:57;;;;;;;19.08;10.45;;;;;;;;;;5030868;28;20044;-64
2021/12/24 06:59:23;;;;;;;30.15;15.25;;;;;;;;;;5032423;28;20025;-64
2021/12/24 07:01:48;;;;;;;240.90;96.72;;;;;;;;;;5032722;28;20566;-66
2021/12/24 07:04:14;;;;;;;238.20;103.88;;;;;;;;;;5030612;28;20404;-65
2021/12/24 07:06:45;;;;;;;72.65;35.40;;;;;;;;;;5032518;28;20072;-65
2021/12/24 07:09:11;;;;;;;55.85;31.05;;;;;;;;;;5032149;28;20112;-66
2021/12/24 07:11:37;;;;;;;36.50;21.48;;;;;;;;;;5032323;28;20127;-66
2021/12/24 07:14:02;;;;;;;49.05;27.40;;;;;;;;;;5032184;28;20176;-65
2021/12/24 07:16:28;;;;;;;39.05;22.27;;;;;;;;;;5031876;28;20361;-65
2021/12/24 07:18:53;;;;;;;72.88;37.30;;;;;;;;;;5032699;28;20021;-66
2021/12/24 07:21:19;;;;;;;79.80;37.75;;;;;;;;;;5032292;28;20034;-61
2021/12/24 07:23:44;;;;;;;69.22;30.77;;;;;;;;;;5027538;28;20029;-62
2021/12/24 07:26:09;;;;;;;65.57;28.13;;;;;;;;;;5013512;28;20501;-64
2021/12/24 07:28:35;;;;;;;47.40;21.42;;;;;;;;;;5028822;28;20036;-66
2021/12/24 07:31:00;;;;;;;43.67;16.20;;;;;;;;;;5032220;28;20035;-63
2021/12/24 07:33:26;;;;;;;70.32;20.50;;;;;;;;;;5031972;28;20018;-66
2021/12/24 07:35:51;;;;;;;57.53;22.33;;;;;;;;;;5031863;28;20094;-65
2021/12/24 07:38:17;;;;;;;27.38;13.02;;;;;;;;;;5032110;28;20423;-66
2021/12/24 07:40:44;;;;;;;28.92;12.45;;;;;;;;;;5047259;28;20083;-65
2021/12/24 07:43:09;;;;;;;32.55;14.75;;;;;;;;;;5031658;28;20112;-66
2021/12/24 07:45:37;;;;;;;23.27;11.30;;;;;;;;;;5031959;28;20112;-64
2021/12/24 07:48:28;;;;;;;28.70;12.35;;;;;;;;;;5031702;28;20423;-64
2021/12/24 07:53:16;;;;;;;24.23;13.73;;;;;;;;;;5013090;28;20473;-64
2021/12/24 07:55:43;;;;;;;32.42;17.73;;;;;;;;;;5025931;28;20091;-66
2021/12/24 07:58:09;;;;;;;40.72;19.38;;;;;;;;;;5012930;28;20034;-64
2021/12/24 08:00:36;;;;;;;33.55;15.95;;;;;;;;;;5016478;28;20033;-66
2021/12/24 08:03:03;;;;;;;25.55;13.63;;;;;;;;;;5020162;28;20037;-66
2021/12/24 08:05:30;;;;;;;28.77;17.83;;;;;;;;;;5031522;28;20418;-65
2021/12/24 08:07:55;;;;;;;27.00;14.30;;;;;;;;;;5024032;28;20547;-66
2021/12/24 08:10:24;;;;;;;20.10;11.68;;;;;;;;;;5031897;28;20037;-63
2021/12/24 08:12:50;;;;;;;15.68;10.10;;;;;;;;;;5029404;28;20025;-60
2021/12/24 08:15:17;;;;;;;18.65;11.68;;;;;;;;;;5027461;28;20029;-60
2021/12/24 08:17:44;;;;;;;20.08;10.23;;;;;;;;;;5031580;28;20400;-66
2021/12/24 08:20:11;;;;;;;15.68;9.43;;;;;;;;;;5026668;28;20495;-65
2021/12/24 08:22:37;;;;;;;15.05;9.15;;;;;;;;;;5031438;28;20120;-64
2021/12/24 08:25:06;;;;;;;18.60;9.57;;;;;;;;;;5031290;28;20196;-65
2021/12/24 08:27:32;;;;;;;74.75;38.53;;;;;;;;;;5026907;28;20374;-65
2021/12/24 08:29:57;;;;;;;42.10;20.90;;;;;;;;;;5035697;28;20095;-65
2021/12/24 08:32:23;;;;;;;37.67;14.93;;;;;;;;;;5035462;28;20548;-65
2021/12/24 08:34:51;;;;;;;29.70;12.05;;;;;;;;;;5031186;28;20076;-64
2021/12/24 08:37:17;;;;;;;18.70;9.57;;;;;;;;;;5033837;28;20084;-66
2021/12/24 08:39:42;;;;;;;20.33;9.85;;;;;;;;;;5033426;28;20554;-65
2021/12/24 08:42:08;;;;;;;25.65;13.52;;;;;;;;;;5033806;28;20088;-66
2021/12/24 08:44:35;;;;;;;21.25;12.25;;;;;;;;;;5031142;28;20021;-65
2021/12/24 08:47:01;;;;;;;23.88;13.63;;;;;;;;;;5033432;28;20034;-64
2021/12/24 08:49:28;;;;;;;30.80;17.77;;;;;;;;;;5032433;28;20454;-66
2021/12/24 08:51:54;;;;;;;24.80;14.93;;;;;;;;;;5030644;28;20400;-63
2021/12/24 08:54:21;;;;;;;23.80;14.00;;;;;;;;;;5027681;28;20033;-66
2021/12/24 08:56:48;;;;;;;28.42;16.15;;;;;;;;;;5029615;28;20034;-67
2021/12/24 08:59:14;;;;;;;20.38;10.68;;;;;;;;;;5028150;28;20029;-67
2021/12/24 09:01:42;;;;;;;16.17;9.07;;;;;;;;;;5023680;28;20084;-65
2021/12/24 09:04:09;;;;;;;15.57;8.07;;;;;;;;;;5024035;28;20025;-64
2021/12/24 09:06:34;;;;;;;16.90;9.13;;;;;;;;;;5034222;28;20083;-65
2021/12/24 09:09:00;;;;;;;16.27;10.10;;;;;;;;;;5033409;28;20449;-66
2021/12/24 09:11:26;;;;;;;26.38;15.52;;;;;;;;;;5035071;28;20038;-67
2021/12/24 09:13:52;;;;;;;40.22;23.70;;;;;;;;;;5034975;28;20033;-66
2021/12/24 09:16:17;;;;;;;38.22;21.63;;;;;;;;;;5023800;28;20191;-62
2021/12/24 09:18:44;;;;;;;26.30;15.30;;;;;;;;;;5028966;28;20025;-65
2021/12/24 09:21:15;;;;;;;20.38;11.38;;;;;;;;;;5032399;28;20034;-65
2021/12/24 09:23:43;;;;;;;21.00;12.38;;;;;;;;;;5030839;28;20083;-66
2021/12/24 09:26:09;;;;;;;25.45;12.13;;;;;;;;;;5034526;28;20041;-65
2021/12/24 09:28:34;;;;;;;23.67;11.90;;;;;;;;;;5034040;28;20033;-65
2021/12/24 09:31:00;;;;;;;22.85;11.70;;;;;;;;;;5029415;28;20033;-66
2021/12/24 09:33:25;;;;;;;23.38;12.23;;;;;;;;;;5032220;28;20472;-66
2021/12/24 09:35:51;;;;;;;25.42;13.75;;;;;;;;;;5034460;28;20556;-65
2021/12/24 09:38:16;;;;;;;26.52;14.18;;;;;;;;;;5031572;28;20049;-65
2021/12/24 09:40:42;;;;;;;25.50;13.93;;;;;;;;;;5033808;28;20026;-64
2021/12/24 09:43:07;;;;;;;31.23;14.00;;;;;;;;;;5015726;28;20120;-66
2021/12/24 09:45:33;;;;;;;34.38;16.00;;;;;;;;;;5028223;28;20034;-66
2021/12/24 09:47:58;;;;;;;30.15;15.18;;;;;;;;;;5017937;28;20059;-66
2021/12/24 09:50:25;;;;;;;22.67;12.00;;;;;;;;;;5031066;28;20033;-66
2021/12/24 09:52:51;;;;;;;29.67;14.13;;;;;;;;;;5022792;28;20045;-66
2021/12/24 09:55:20;;;;;;;28.83;14.27;;;;;;;;;;5014970;28;20477;-66
2021/12/24 09:57:47;;;;;;;31.63;17.13;;;;;;;;;;5015073;28;20076;-66
2021/12/24 10:00:14;;;;;;;30.10;16.20;;;;;;;;;;5031434;28;20104;-65
2021/12/24 10:02:46;;;;;;;34.42;17.75;;;;;;;;;;5032408;28;20167;-65
2021/12/24 10:05:25;;;;;;;32.80;16.65;;;;;;;;;;5033478;28;20083;-67
2021/12/24 10:07:51;;;;;;;35.28;17.27;;;;;;;;;;5021635;28;20508;-64
2021/12/24 10:10:25;;;;;;;24.25;11.88;;;;;;;;;;5034428;28;20079;-60
2021/12/24 10:12:52;;;;;;;28.90;14.90;;;;;;;;;;5026392;28;20095;-60
2021/12/24 10:15:17;;;;;;;28.88;14.38;;;;;;;;;;5029302;28;20499;-59
2021/12/24 10:17:43;;;;;;;31.60;16.42;;;;;;;;;;5034372;28;20059;-59
2021/12/24 10:20:14;;;;;;;29.42;14.65;;;;;;;;;;5034120;28;20030;-62
2021/12/24 10:22:48;;;;;;;29.80;14.38;;;;;;;;;;5034070;28;20025;-63
2021/12/24 10:25:16;;;;;;;62.05;24.13;;;;;;;;;;5030189;28;20028;-65
2021/12/24 10:27:43;;;;;;;39.40;17.17;;;;;;;;;;5027150;28;20109;-62
2021/12/24 10:30:21;;;;;;;34.92;15.82;;;;;;;;;;5028145;28;20030;-63
2021/12/24 10:32:47;;;;;;;26.70;13.68;;;;;;;;;;5021859;28;20030;-62
2021/12/24 10:35:30;;;;;;;30.42;15.10;;;;;;;;;;5024050;28;20033;-63
2021/12/24 10:38:11;;;;;;;34.65;16.92;;;;;;;;;;5024620;28;20396;-64
2021/12/24 10:40:59;;;;;;;27.48;14.10;;;;;;;;;;5031067;28;20026;-67
2021/12/24 10:43:27;;;;;;;35.35;16.17;;;;;;;;;;5033329;28;20504;-65
2021/12/24 10:46:22;;;;;;;30.92;14.32;;;;;;;;;;5016110;28;20075;-65
2021/12/24 10:49:07;;;;;;;30.38;13.88;;;;;;;;;;5029677;28;20026;-66
2021/12/24 10:51:57;;;;;;;36.47;16.08;;;;;;;;;;5013258;28;20034;-62
2021/12/24 10:54:23;;;;;;;29.00;13.95;;;;;;;;;;5028214;28;20112;-67
2021/12/24 10:56:48;;;;;;;52.05;25.23;;;;;;;;;;5022797;28;20113;-66
2021/12/24 10:59:14;;;;;;;47.30;24.88;;;;;;;;;;5033255;28;20129;-64
2021/12/24 11:01:39;;;;;;;35.65;18.15;;;;;;;;;;5023866;28;20095;-66
2021/12/24 11:04:05;;;;;;;121.85;56.33;;;;;;;;;;5020414;28;20021;-65
2021/12/24 11:06:32;;;;;;;73.70;35.80;;;;;;;;;;5032772;28;20083;-62
2021/12/24 11:08:58;;;;;;;106.68;53.90;;;;;;;;;;5015513;28;20472;-65
2021/12/24 11:11:24;;;;;;;40.15;21.63;;;;;;;;;;5032958;28;20033;-66
2021/12/24 11:13:52;;;;;;;26.88;14.60;;;;;;;;;;5026062;28;20362;-67
2021/12/24 11:16:20;;;;;;;24.95;12.90;;;;;;;;;;5032953;28;20108;-66
2021/12/24 11:18:58;;;;;;;20.88;11.32;;;;;;;;;;5029992;28;20682;-65
2021/12/24 11:21:25;;;;;;;23.15;12.90;;;;;;;;;;5021116;28;20393;-65
2021/12/24 11:23:52;;;;;;;27.27;13.70;;;;;;;;;;5024340;28;20022;-64
2021/12/24 11:26:20;;;;;;;27.80;13.23;;;;;;;;;;5029135;28;20041;-64
2021/12/24 11:28:46;;;;;;;27.00;12.30;;;;;;;;;;5028434;28;20041;-66
2021/12/24 11:31:14;;;;;;;29.27;14.05;;;;;;;;;;5028698;28;20388;-64
2021/12/24 11:33:42;;;;;;;25.92;12.13;;;;;;;;;;5027741;28;20095;-67
2021/12/24 11:36:10;;;;;;;28.10;12.70;;;;;;;;;;5025549;28;20389;-66
2021/12/24 11:38:41;;;;;;;38.67;16.27;;;;;;;;;;5026648;28;20084;-66
2021/12/24 11:41:13;;;;;;;26.58;11.27;;;;;;;;;;5009263;28;20045;-66
2021/12/24 11:43:41;;;;;;;32.30;16.15;;;;;;;;;;5021243;28;20022;-65
2021/12/24 11:46:10;;;;;;;141.45;25.08;;;;;;;;;;5021846;28;20489;-64
2021/12/24 11:48:36;;;;;;;57.97;16.23;;;;;;;;;;5020851;28;20116;-72
2021/12/24 11:51:06;;;;;;;48.15;14.35;;;;;;;;;;5022041;28;20034;-71
2021/12/24 11:53:33;;;;;;;35.88;11.88;;;;;;;;;;5022821;28;20025;-71
2021/12/24 11:56:06;;;;;;;41.20;13.43;;;;;;;;;;5022343;28;20037;-72
2021/12/24 11:58:32;;;;;;;25.40;12.00;;;;;;;;;;5027823;28;20119;-67
2021/12/24 12:01:04;;;;;;;24.13;10.45;;;;;;;;;;5022547;28;20057;-70
2021/12/24 12:03:41;;;;;;;25.13;9.93;;;;;;;;;;5015966;28;20481;-73
2021/12/24 12:06:11;;;;;;;19.67;9.63;;;;;;;;;;5026388;28;20113;-61
2021/12/24 12:08:39;;;;;;;16.58;9.52;;;;;;;;;;5021871;28;20021;-61
2021/12/24 12:11:06;;;;;;;13.77;7.60;;;;;;;;;;5027973;28;20119;-63
2021/12/24 12:13:42;;;;;;;17.05;8.27;;;;;;;;;;5014936;28;20023;-62
2021/12/24 12:16:17;;;;;;;13.68;7.10;;;;;;;;;;5027302;28;20120;-61
2021/12/24 12:18:47;;;;;;;17.77;9.18;;;;;;;;;;5026912;28;20063;-61
2021/12/24 12:21:26;;;;;;;14.82;8.68;;;;;;;;;;5027608;28;20021;-60
2021/12/24 12:26:36;;;;;;;17.33;9.98;;;;;;;;;;5028073;28;20376;-64
2021/12/24 12:29:28;;;;;;;16.63;9.43;;;;;;;;;;5028259;28;20029;-63
2021/12/24 12:31:55;;;;;;;16.25;10.52;;;;;;;;;;5028041;28;20029;-66
2021/12/24 12:34:39;;;;;;;15.25;8.55;;;;;;;;;;5027788;28;20067;-61
2021/12/24 12:37:11;;;;;;;14.55;8.65;;;;;;;;;;5028296;28;20029;-70
2021/12/24 12:39:36;;;;;;;15.75;8.77;;;;;;;;;;5027829;28;20044;-65
2021/12/24 12:42:03;;;;;;;29.33;15.32;;;;;;;;;;5028207;28;20105;-69
2021/12/24 12:44:29;;;;;;;44.20;23.17;;;;;;;;;;5028091;28;20029;-71
2021/12/24 12:47:08;;;;;;;60.65;28.33;;;;;;;;;;5010259;28;20075;-63
2021/12/24 12:49:35;;;;;;;45.53;22.30;;;;;;;;;;5028184;28;20075;-67
2021/12/24 12:52:16;;;;;;;66.45;31.35;;;;;;;;;;5027725;28;20485;-70
2021/12/24 12:54:50;;;;;;;52.35;25.08;;;;;;;;;;5027964;28;20029;-70
2021/12/24 12:57:28;;;;;;;38.42;21.85;;;;;;;;;;5010083;28;20024;-68
2021/12/24 13:00:21;;;;;;;28.58;17.70;;;;;;;;;;5026691;28;20040;-70
2021/12/24 13:02:56;;;;;;;27.92;15.70;;;;;;;;;;5026242;28;20560;-64
2021/12/24 13:05:23;;;;;;;45.00;21.27;;;;;;;;;;5027863;28;20040;-70
2021/12/24 13:07:48;;;;;;;52.63;28.17;;;;;;;;;;5027888;28;20014;-70
2021/12/24 13:10:18;;;;;;;47.05;28.02;;;;;;;;;;5027179;28;20037;-69
2021/12/24 13:12:44;;;;;;;30.05;19.92;;;;;;;;;;5027756;28;20087;-67
2021/12/24 13:15:16;;;;;;;25.15;14.88;;;;;;;;;;5029913;28;20029;-62
2021/12/24 13:17:45;;;;;;;42.25;28.35;;;;;;;;;;5031220;28;20480;-69
2021/12/24 13:20:18;;;;;;;35.72;23.85;;;;;;;;;;5031311;28;20477;-62
2021/12/24 13:22:43;;;;;;;29.63;19.35;;;;;;;;;;5031541;28;20033;-70
2021/12/24 13:25:14;;;;;;;22.95;15.52;;;;;;;;;;5031274;28;20014;-69
2021/12/24 13:27:51;;;;;;;21.95;14.00;;;;;;;;;;5031235;28;20021;-68
2021/12/24 13:30:24;;;;;;;17.67;10.75;;;;;;;;;;5030848;28;20045;-62
2021/12/24 13:33:01;;;;;;;16.83;10.00;;;;;;;;;;5031296;28;20029;-69
2021/12/24 13:35:29;;;;;;;16.05;10.32;;;;;;;;;;5031311;28;20096;-70
2021/12/24 13:37:56;;;;;;;19.80;11.50;;;;;;;;;;5030518;28;20054;-67
2021/12/24 13:40:25;;;;;;;18.67;11.98;;;;;;;;;;5031241;28;20087;-69
2021/12/24 13:43:03;;;;;;;15.50;9.25;;;;;;;;;;5030931;28;20098;-71
2021/12/24 13:45:33;;;;;;;25.02;14.30;;;;;;;;;;5019496;28;20036;-70
2021/12/24 13:48:07;;;;;;;154.02;51.25;;;;;;;;;;5025364;28;20037;-65
2021/12/24 13:56:19;;;;;;;101.32;40.00;;;;;;;;;;5022374;28;20096;-69
2021/12/24 13:58:56;;;;;;;55.63;25.10;;;;;;;;;;5029930;28;20113;-69
2021/12/24 14:01:24;;;;;;;39.33;19.35;;;;;;;;;;5011677;28;20034;-60
2021/12/24 14:03:50;;;;;;;33.70;19.83;;;;;;;;;;5029618;28;20033;-61
2021/12/24 14:06:15;;;;;;;26.92;16.45;;;;;;;;;;5030188;28;20096;-61
2021/12/24 14:08:41;;;;;;;19.98;13.18;;;;;;;;;;5026654;28;20026;-63
2021/12/24 14:11:10;;;;;;;16.98;10.45;;;;;;;;;;5009934;28;20048;-61
2021/12/24 14:13:42;;;;;;;16.70;10.27;;;;;;;;;;5027040;28;20529;-63
2021/12/24 14:19:19;;;;;;;14.85;8.85;;;;;;;;;;5017629;28;20021;-70
2021/12/24 14:21:46;;;;;;;13.23;8.45;;;;;;;;;;5029955;28;20072;-69
2021/12/24 14:24:25;;;;;;;16.88;9.75;;;;;;;;;;5020389;28;20473;-69
2021/12/24 14:27:02;;;;;;;17.00;10.48;;;;;;;;;;5010482;28;20034;-64
2021/12/24 14:29:31;;;;;;;15.07;10.02;;;;;;;;;;5010167;28;20030;-61
2021/12/24 14:32:00;;;;;;;13.45;9.15;;;;;;;;;;5017299;28;20056;-63
2021/12/24 14:34:50;;;;;;;10.85;6.80;;;;;;;;;;5029985;28;20427;-61
2021/12/24 14:37:34;;;;;;;17.17;10.35;;;;;;;;;;5027973;28;20045;-62
2021/12/24 14:40:20;;;;;;;19.65;12.05;;;;;;;;;;5022262;28;20484;-61
2021/12/24 14:42:49;;;;;;;22.00;12.45;;;;;;;;;;5026173;28;20107;-60
2021/12/24 14:45:17;;;;;;;59.00;15.40;;;;;;;;;;5031596;28;20116;-69
2021/12/24 14:47:55;;;;;;;31.27;13.57;;;;;;;;;;5031221;28;20036;-70
2021/12/24 14:50:20;;;;;;;22.27;11.55;;;;;;;;;;5026322;28;20037;-70
2021/12/24 14:52:46;;;;;;;21.27;9.98;;;;;;;;;;5026184;28;20112;-68
2021/12/24 14:55:21;;;;;;;22.17;11.18;;;;;;;;;;5031026;28;20076;-72
2021/12/24 14:57:53;;;;;;;22.42;11.63;;;;;;;;;;5027751;28;20033;-67
2021/12/24 15:00:24;;;;;;;137.93;21.38;;;;;;;;;;5031058;28;20112;-66
2021/12/24 15:02:50;;;;;;;58.55;13.95;;;;;;;;;;5032840;28;20071;-69
2021/12/24 15:05:30;;;;;;;21.45;11.63;;;;;;;;;;5027112;28;20036;-65
2021/12/24 15:07:56;;;;;;;24.88;14.45;;;;;;;;;;5018402;28;20038;-65
2021/12/24 15:10:23;;;;;;;21.42;11.43;;;;;;;;;;5028804;28;20028;-65
2021/12/24 15:12:59;;;;;;;16.88;9.07;;;;;;;;;;5036461;28;20112;-65
2021/12/24 15:15:26;;;;;;;19.30;10.50;;;;;;;;;;5033887;28;20041;-64
2021/12/24 15:17:52;;;;;;;32.47;16.63;;;;;;;;;;5033269;28;20428;-64
2021/12/24 15:20:19;;;;;;;17.45;8.73;;;;;;;;;;5032925;28;20112;-65
2021/12/24 15:22:44;;;;;;;20.63;11.70;;;;;;;;;;5033115;28;20034;-65
2021/12/24 15:25:10;;;;;;;18.48;9.88;;;;;;;;;;5023857;28;20124;-65
2021/12/24 15:27:37;;;;;;;17.95;10.65;;;;;;;;;;5007557;28;20132;-63
2021/12/24 15:30:08;;;;;;;48.50;22.45;;;;;;;;;;5007493;28;20040;-59
2021/12/24 15:32:34;;;;;;;16.02;8.45;;;;;;;;;;5007712;28;20029;-59
2021/12/24 15:35:00;;;;;;;19.90;10.95;;;;;;;;;;5007364;28;20030;-60
2021/12/24 15:37:25;;;;;;;18.35;8.63;;;;;;;;;;5018967;28;20036;-59
2021/12/24 15:39:51;;;;;;;34.88;17.67;;;;;;;;;;5026863;28;20042;-62
2021/12/24 15:42:18;;;;;;;21.42;9.48;;;;;;;;;;5033008;28;20044;-63
2021/12/24 15:44:47;;;;;;;27.48;8.57;;;;;;;;;;5028659;28;20504;-60
2021/12/24 15:47:13;;;;;;;17.95;9.77;;;;;;;;;;5028895;28;20112;-61
2021/12/24 15:49:39;;;;;;;12.50;6.10;;;;;;;;;;5028683;28;20110;-61
2021/12/24 15:52:04;;;;;;;8.35;3.60;;;;;;;;;;5028735;28;20496;-59
2021/12/24 15:54:30;;;;;;;11.57;2.72;;;;;;;;;;5028399;28;20108;-59
2021/12/24 15:56:56;;;;;;;11.20;5.30;;;;;;;;;;5028773;28;20025;-60
2021/12/24 15:59:22;;;;;;;8.75;4.13;;;;;;;;;;5028535;28;20144;-61
2021/12/24 16:01:48;;;;;;;9.05;4.55;;;;;;;;;;5028464;28;20056;-60
2021/12/24 16:04:13;;;;;;;17.83;7.75;;;;;;;;;;5028379;28;20032;-60
2021/12/24 16:06:39;;;;;;;33.70;16.00;;;;;;;;;;5028797;28;20040;-63
2021/12/24 16:09:04;;;;;;;9.88;6.05;;;;;;;;;;5028265;28;20022;-61
2021/12/24 16:11:30;;;;;;;10.65;5.15;;;;;;;;;;5028398;28;20028;-61
2021/12/24 16:13:55;;;;;;;15.10;8.93;;;;;;;;;;5028404;28;20112;-60